createdAt,value
2023-05-13T00:00:49.897Z,5.93
2023-05-13T00:03:17.674Z,6.10
2023-05-13T00:05:45.756Z,7.05
2023-05-13T00:08:13.242Z,5.70
2023-05-13T00:10:41.036Z,5.82
2023-05-13T00:13:08.459Z,6.93
2023-05-13T00:15:35.865Z,6.28
2023-05-13T00:18:03.653Z,5.85
2023-05-13T00:20:31.229Z,6.15
2023-05-13T00:22:58.660Z,5.80
2023-05-13T00:25:26.367Z,6.10
2023-05-13T00:27:53.742Z,5.45
2023-05-13T00:30:21.448Z,5.53
2023-05-13T00:32:49.314Z,5.97
2023-05-13T00:35:16.921Z,5.22
2023-05-13T00:37:44.950Z,5.85
2023-05-13T00:40:24.649Z,5.75
2023-05-13T00:42:52.140Z,5.28
2023-05-13T00:45:20.534Z,5.40
2023-05-13T00:47:49.505Z,5.40
2023-05-13T00:50:17.131Z,5.25
2023-05-13T00:52:45.033Z,5.85
2023-05-13T00:55:12.782Z,5.80
2023-05-13T00:57:40.525Z,5.30
2023-05-13T01:00:08.923Z,5.72
2023-05-13T01:02:48.958Z,5.35
2023-05-13T01:05:43.229Z,5.07
2023-05-13T01:08:34.843Z,5.12
2023-05-13T01:11:10.503Z,5.00
2023-05-13T01:13:43.077Z,5.55
2023-05-13T01:16:19.179Z,5.70
2023-05-13T01:18:53.668Z,5.35
2023-05-13T01:21:28.447Z,5.50
2023-05-13T01:23:56.239Z,5.10
2023-05-13T01:26:25.265Z,5.37
2023-05-13T01:28:53.419Z,5.62
2023-05-13T01:31:21.504Z,5.18
2023-05-13T01:33:50.232Z,5.78
2023-05-13T01:36:18.107Z,5.65
2023-05-13T01:38:45.499Z,6.10
2023-05-13T01:41:13.215Z,5.12
2023-05-13T01:43:40.683Z,5.72
2023-05-13T01:46:14.499Z,5.70
2023-05-13T01:48:42.253Z,5.25
2023-05-13T01:51:09.952Z,5.20
2023-05-13T01:53:37.388Z,5.35
2023-05-13T01:56:05.495Z,5.53
2023-05-13T01:58:32.867Z,5.78
2023-05-13T02:01:00.786Z,6.32
2023-05-13T02:03:28.617Z,5.55
2023-05-13T02:05:56.426Z,5.10
2023-05-13T02:08:25.400Z,6.25
2023-05-13T02:10:59.347Z,6.10
2023-05-13T02:13:28.488Z,5.65
2023-05-13T02:15:56.540Z,5.55
2023-05-13T02:18:24.546Z,5.68
2023-05-13T02:20:52.150Z,6.15
2023-05-13T02:23:19.902Z,6.50
2023-05-13T02:25:47.309Z,6.53
2023-05-13T02:28:14.963Z,6.78
2023-05-13T02:30:42.817Z,6.55
2023-05-13T02:33:10.526Z,6.50
2023-05-13T02:35:38.063Z,6.57
2023-05-13T02:38:05.937Z,7.00
2023-05-13T02:40:33.551Z,7.00
2023-05-13T02:43:01.094Z,7.10
2023-05-13T02:45:29.617Z,7.70
2023-05-13T02:47:57.776Z,7.45
2023-05-13T02:50:25.337Z,7.60
2023-05-13T02:52:53.514Z,7.47
2023-05-13T02:55:21.338Z,7.78
2023-05-13T02:57:48.752Z,8.00
2023-05-13T03:00:16.698Z,8.57
2023-05-13T03:02:44.238Z,7.90
2023-05-13T03:05:11.715Z,7.60
2023-05-13T03:07:39.482Z,8.18
2023-05-13T03:10:07.394Z,7.97
2023-05-13T03:12:35.062Z,7.97
2023-05-13T03:15:04.293Z,7.93
2023-05-13T03:17:33.400Z,6.85
2023-05-13T03:20:00.898Z,7.03
2023-05-13T03:22:28.920Z,7.18
2023-05-13T03:24:58.303Z,6.57
2023-05-13T03:27:26.222Z,6.40
2023-05-13T03:29:53.904Z,6.07
2023-05-13T03:32:22.869Z,6.43
2023-05-13T03:34:50.418Z,6.37
2023-05-13T03:37:18.096Z,5.70
2023-05-13T03:39:45.479Z,6.30
2023-05-13T03:42:13.266Z,5.68
2023-05-13T03:44:40.982Z,5.68
2023-05-13T03:47:09.093Z,5.55
2023-05-13T03:49:36.508Z,5.97
2023-05-13T03:52:04.583Z,5.68
2023-05-13T03:54:32.001Z,6.65
2023-05-13T03:56:59.381Z,5.57
2023-05-13T03:59:27.138Z,5.60
2023-05-13T04:01:54.591Z,6.40
2023-05-13T04:04:22.420Z,6.10
2023-05-13T04:06:49.893Z,6.07
2023-05-13T04:09:17.345Z,6.22
2023-05-13T04:11:45.092Z,5.78
2023-05-13T04:14:12.451Z,6.50
2023-05-13T04:16:39.978Z,6.28
2023-05-13T04:19:07.746Z,6.35
2023-05-13T04:21:35.225Z,6.10
2023-05-13T04:24:02.731Z,5.68
2023-05-13T04:26:30.354Z,6.12
2023-05-13T04:28:57.798Z,5.57
2023-05-13T04:31:25.998Z,5.45
2023-05-13T04:33:53.824Z,5.45
2023-05-13T04:36:21.754Z,5.90
2023-05-13T04:38:49.242Z,6.03
2023-05-13T04:41:17.405Z,5.80
2023-05-13T04:43:44.934Z,5.65
2023-05-13T04:46:12.753Z,5.70
2023-05-13T04:48:40.486Z,5.50
2023-05-13T04:51:08.578Z,5.70
2023-05-13T04:53:36.502Z,5.62
2023-05-13T04:56:05.305Z,6.40
2023-05-13T04:58:32.691Z,6.10
2023-05-13T05:01:00.165Z,6.00
2023-05-13T05:03:28.321Z,6.05
2023-05-13T05:05:55.799Z,6.05
2023-05-13T05:08:23.963Z,6.25
2023-05-13T05:10:52.006Z,6.18
2023-05-13T05:13:19.848Z,5.72
2023-05-13T05:15:47.296Z,5.93
2023-05-13T05:18:15.374Z,5.60
2023-05-13T05:20:43.480Z,6.10
2023-05-13T05:23:11.392Z,5.32
2023-05-13T05:25:39.512Z,5.43
2023-05-13T05:28:09.318Z,5.78
2023-05-13T05:30:39.733Z,5.43
2023-05-13T05:33:08.609Z,6.00
2023-05-13T05:35:38.253Z,5.37
2023-05-13T05:38:07.591Z,5.57
2023-05-13T05:40:41.068Z,5.78
2023-05-13T05:43:11.118Z,5.97
2023-05-13T05:45:39.648Z,5.97
2023-05-13T05:48:08.123Z,6.80
2023-05-13T05:50:36.471Z,5.97
2023-05-13T05:53:06.910Z,6.07
2023-05-13T05:55:34.846Z,6.30
2023-05-13T05:58:06.480Z,6.40
2023-05-13T06:00:34.698Z,5.65
2023-05-13T06:03:02.582Z,5.80
2023-05-13T06:05:30.122Z,5.47
2023-05-13T06:07:57.521Z,6.53
2023-05-13T06:10:25.307Z,5.37
2023-05-13T06:12:53.433Z,5.82
2023-05-13T06:15:20.938Z,5.80
2023-05-13T06:17:48.655Z,5.65
2023-05-13T06:20:16.281Z,5.93
2023-05-13T06:22:43.794Z,5.90
2023-05-13T06:25:11.501Z,5.57
2023-05-13T06:27:40.820Z,5.75
2023-05-13T06:30:08.501Z,5.35
2023-05-13T06:32:38.132Z,5.82
2023-05-13T06:35:07.565Z,4.93
2023-05-13T06:37:35.455Z,5.32
2023-05-13T06:40:04.278Z,5.25
2023-05-13T06:42:32.606Z,5.35
2023-05-13T06:45:00.239Z,5.68
2023-05-13T06:47:28.170Z,5.93
2023-05-13T06:49:55.754Z,5.45
2023-05-13T06:52:23.179Z,5.53
2023-05-13T06:54:51.488Z,5.62
2023-05-13T06:57:18.924Z,5.50
2023-05-13T06:59:46.309Z,4.70
2023-05-13T07:02:14.334Z,5.20
2023-05-13T07:04:41.728Z,5.12
2023-05-13T07:07:09.086Z,5.07
2023-05-13T07:09:36.705Z,5.20
2023-05-13T07:12:04.439Z,5.53
2023-05-13T07:14:31.825Z,5.53
2023-05-13T07:16:59.640Z,4.00
2023-05-13T07:19:27.084Z,4.80
2023-05-13T07:21:54.612Z,4.50
2023-05-13T07:24:22.469Z,4.12
2023-05-13T07:26:49.936Z,4.22
2023-05-13T07:29:17.797Z,3.90
2023-05-13T07:31:45.520Z,4.22
2023-05-13T07:34:12.942Z,4.20
2023-05-13T07:36:40.711Z,3.62
2023-05-13T07:39:08.728Z,3.62
2023-05-13T07:41:36.829Z,3.62
2023-05-13T07:44:05.806Z,3.62
2023-05-13T07:46:33.607Z,4.10
2023-05-13T07:49:01.105Z,3.78
2023-05-13T07:51:29.459Z,3.87
2023-05-13T07:53:57.224Z,2.97
2023-05-13T07:56:24.657Z,4.20
2023-05-13T07:58:52.547Z,3.78
2023-05-13T08:01:20.295Z,3.30
2023-05-13T08:03:48.170Z,3.30
2023-05-13T08:06:15.711Z,2.92
2023-05-13T08:08:43.185Z,3.50
2023-05-13T08:11:11.083Z,3.20
2023-05-13T08:13:38.727Z,2.70
2023-05-13T08:16:07.334Z,2.75
2023-05-13T08:18:35.133Z,2.95
2023-05-13T08:21:02.637Z,2.78
2023-05-13T08:23:43.544Z,3.20
2023-05-13T08:26:13.408Z,3.08
2023-05-13T08:28:42.279Z,3.85
2023-05-13T08:31:13.670Z,3.85
2023-05-13T08:33:42.691Z,4.53
2023-05-13T08:36:10.181Z,4.20
2023-05-13T08:38:37.700Z,4.78
2023-05-13T08:41:08.415Z,4.78
2023-05-13T08:43:38.287Z,4.07
2023-05-13T08:46:10.996Z,4.05
2023-05-13T08:48:39.627Z,4.05
2023-05-13T08:51:10.092Z,4.25
2023-05-13T08:53:39.582Z,4.40
2023-05-13T08:56:08.999Z,4.40
2023-05-13T08:58:36.480Z,4.28
2023-05-13T09:01:04.365Z,4.43
2023-05-13T09:03:32.642Z,4.10
2023-05-13T09:06:03.464Z,4.12
2023-05-13T09:08:32.642Z,4.10
2023-05-13T09:11:00.886Z,3.78
2023-05-13T09:13:28.336Z,3.95
2023-05-13T09:15:55.961Z,4.07
2023-05-13T09:18:30.117Z,3.65
2023-05-13T09:20:57.725Z,3.37
2023-05-13T09:23:25.448Z,4.28
2023-05-13T09:25:52.830Z,4.00
2023-05-13T09:28:20.242Z,3.53
2023-05-13T09:30:54.716Z,3.35
2023-05-13T09:33:22.626Z,3.80
2023-05-13T09:35:53.747Z,3.50
2023-05-13T09:38:28.884Z,3.90
2023-05-13T09:40:58.500Z,3.37
2023-05-13T09:43:33.043Z,3.92
2023-05-13T09:46:02.081Z,3.90
2023-05-13T09:48:32.089Z,3.45
2023-05-13T09:50:59.707Z,3.47
2023-05-13T09:53:28.578Z,3.58
2023-05-13T09:55:57.317Z,2.62
2023-05-13T09:58:28.340Z,3.17
2023-05-13T10:00:56.873Z,3.37
2023-05-13T10:03:24.958Z,3.12
2023-05-13T10:05:53.581Z,3.03
2023-05-13T10:08:22.250Z,3.50
2023-05-13T10:10:50.589Z,2.80
2023-05-13T10:13:21.162Z,3.20
2023-05-13T10:15:53.332Z,3.25
2023-05-13T10:18:22.642Z,3.10
2023-05-13T10:20:53.416Z,3.67
2023-05-13T10:23:24.898Z,3.70
2023-05-13T10:25:54.025Z,3.72
2023-05-13T10:28:22.280Z,4.50
2023-05-13T10:30:52.513Z,3.83
2023-05-13T10:33:20.444Z,4.05
2023-05-13T10:36:07.968Z,3.97
2023-05-13T10:38:53.522Z,3.40
2023-05-13T10:41:34.959Z,3.70
2023-05-13T10:44:03.711Z,4.00
2023-05-13T10:46:34.455Z,4.18
2023-05-13T10:49:05.033Z,3.75
2023-05-13T10:51:32.800Z,3.97
2023-05-13T10:54:00.287Z,4.03
2023-05-13T10:56:28.483Z,3.70
2023-05-13T10:59:05.915Z,3.50
2023-05-13T11:01:43.926Z,3.78
2023-05-13T11:04:19.986Z,3.92
2023-05-13T11:06:49.195Z,3.87
2023-05-13T11:09:22.916Z,3.70
2023-05-13T11:11:54.145Z,3.42
2023-05-13T11:14:22.843Z,3.83
2023-05-13T11:16:54.515Z,3.70
2023-05-13T11:19:33.021Z,4.00
2023-05-13T11:22:11.348Z,4.00
2023-05-13T11:24:40.048Z,3.67
2023-05-13T11:27:17.446Z,3.33
2023-05-13T11:29:52.522Z,3.53
2023-05-13T11:32:52.508Z,4.07
2023-05-13T11:35:27.849Z,3.80
2023-05-13T11:37:59.160Z,3.87
2023-05-13T11:40:30.966Z,3.90
2023-05-13T11:42:58.944Z,3.50
2023-05-13T11:45:27.162Z,3.97
2023-05-13T11:47:58.093Z,4.10
2023-05-13T11:50:30.419Z,4.22
2023-05-13T11:53:01.619Z,3.72
2023-05-13T11:55:29.957Z,4.10
2023-05-13T11:57:58.874Z,4.47
2023-05-13T12:00:31.038Z,4.50
2023-05-13T12:05:27.067Z,4.00
2023-05-13T12:07:58.386Z,4.00
2023-05-13T12:10:26.608Z,4.33
2023-05-13T12:12:54.482Z,5.03
2023-05-13T12:15:24.475Z,4.80
2023-05-13T12:17:53.355Z,4.28
2023-05-13T12:20:24.235Z,3.95
2023-05-13T12:22:54.522Z,4.07
2023-05-13T12:25:43.567Z,4.25
2023-05-13T12:28:17.282Z,3.67
2023-05-13T12:30:51.842Z,4.30
2023-05-13T12:33:24.621Z,4.60
2023-05-13T12:35:53.657Z,4.15
2023-05-13T12:38:24.045Z,3.87
2023-05-13T12:40:52.442Z,4.35
2023-05-13T12:43:20.467Z,4.75
2023-05-13T12:45:53.743Z,4.80
2023-05-13T12:48:24.003Z,4.35
2023-05-13T12:50:51.831Z,4.68
2023-05-13T12:53:22.456Z,4.60
2023-05-13T12:55:49.900Z,4.00
2023-05-13T12:58:17.596Z,4.22
2023-05-13T13:00:45.906Z,4.37
2023-05-13T13:03:13.516Z,4.15
2023-05-13T13:05:41.437Z,5.10
2023-05-13T13:08:08.832Z,3.90
2023-05-13T13:10:36.231Z,4.35
2023-05-13T13:13:03.988Z,4.05
2023-05-13T13:15:31.497Z,4.37
2023-05-13T13:17:59.103Z,3.90
2023-05-13T13:20:26.918Z,4.03
2023-05-13T13:22:54.847Z,3.65
2023-05-13T13:25:22.581Z,3.75
2023-05-13T13:27:50.788Z,4.68
2023-05-13T13:30:18.256Z,4.15
2023-05-13T13:32:45.790Z,3.90
2023-05-13T13:35:13.552Z,4.35
2023-05-13T13:37:40.997Z,4.28
2023-05-13T13:40:09.023Z,4.28
2023-05-13T13:42:44.055Z,4.00
2023-05-13T13:45:13.769Z,3.83
2023-05-13T13:47:41.882Z,3.95
2023-05-13T13:50:10.014Z,4.28
2023-05-13T13:52:37.451Z,4.03
2023-05-13T13:55:05.816Z,4.25
2023-05-13T13:57:33.206Z,3.75
2023-05-13T14:00:00.800Z,4.12
2023-05-13T14:02:31.212Z,4.00
2023-05-13T14:05:01.964Z,3.95
2023-05-13T14:07:29.466Z,3.22
2023-05-13T14:09:58.005Z,3.97
2023-05-13T14:12:27.260Z,7.90
2023-05-13T14:14:54.694Z,4.65
2023-05-13T14:17:22.145Z,4.53
2023-05-13T14:19:51.828Z,4.03
2023-05-13T14:22:19.270Z,4.43
2023-05-13T14:24:46.668Z,3.40
2023-05-13T14:27:14.533Z,4.00
2023-05-13T14:29:41.943Z,4.10
2023-05-13T14:32:09.326Z,4.18
2023-05-13T14:34:37.163Z,4.20
2023-05-13T14:37:05.116Z,3.90
2023-05-13T14:39:32.538Z,4.20
2023-05-13T14:42:00.896Z,3.95
2023-05-13T14:44:28.300Z,4.47
2023-05-13T14:46:56.041Z,3.85
2023-05-13T14:49:23.805Z,3.47
2023-05-13T14:51:51.241Z,4.35
2023-05-13T14:54:18.737Z,3.58
2023-05-13T14:56:46.536Z,4.18
2023-05-13T14:59:14.040Z,4.07
2023-05-13T15:01:41.416Z,3.65
2023-05-13T15:04:09.152Z,3.37
2023-05-13T15:06:37.811Z,3.62
2023-05-13T15:09:06.032Z,3.80
2023-05-13T15:11:42.173Z,3.60
2023-05-13T15:14:11.819Z,4.12
2023-05-13T15:16:39.607Z,4.05
2023-05-13T15:19:07.703Z,3.90
2023-05-13T15:21:35.281Z,3.80
2023-05-13T15:24:03.129Z,3.78
2023-05-13T15:26:30.623Z,3.83
2023-05-13T15:28:58.193Z,4.10
2023-05-13T15:31:26.079Z,4.07
2023-05-13T15:33:53.673Z,4.20
2023-05-13T15:36:21.217Z,3.22
2023-05-13T15:38:51.741Z,3.90
2023-05-13T15:41:19.140Z,3.67
2023-05-13T15:43:46.678Z,3.30
2023-05-13T15:46:14.572Z,3.62
2023-05-13T15:48:42.029Z,3.87
2023-05-13T15:51:12.160Z,4.03
2023-05-13T15:53:39.865Z,3.75
2023-05-13T15:56:07.437Z,3.60
2023-05-13T15:58:34.847Z,3.70
2023-05-13T16:01:02.568Z,4.10
2023-05-13T16:03:30.308Z,7.18
2023-05-13T16:05:57.764Z,5.22
2023-05-13T16:08:25.274Z,4.07
2023-05-13T16:10:55.177Z,3.50
2023-05-13T16:13:22.654Z,3.80
2023-05-13T16:15:50.113Z,4.03
2023-05-13T16:18:17.889Z,3.65
2023-05-13T16:20:45.358Z,3.87
2023-05-13T16:23:12.756Z,3.65
2023-05-13T16:25:41.825Z,3.95
2023-05-13T16:28:10.919Z,4.32
2023-05-13T16:30:39.453Z,3.85
2023-05-13T16:33:09.473Z,4.28
2023-05-13T16:35:37.118Z,3.95
2023-05-13T16:38:04.590Z,3.45
2023-05-13T16:40:32.350Z,3.45
2023-05-13T16:43:03.269Z,3.95
2023-05-13T16:45:34.110Z,3.72
2023-05-13T16:48:04.052Z,3.62
2023-05-13T16:50:31.786Z,4.05
2023-05-13T16:53:01.566Z,3.62
2023-05-13T16:55:29.044Z,3.92
2023-05-13T16:57:56.765Z,3.70
2023-05-13T17:00:27.347Z,4.12
2023-05-13T17:02:57.672Z,3.78
2023-05-13T17:05:25.363Z,3.90
2023-05-13T17:07:52.788Z,4.45
2023-05-13T17:10:20.435Z,4.60
2023-05-13T17:12:48.245Z,4.32
2023-05-13T17:15:15.709Z,4.12
2023-05-13T17:17:43.238Z,3.67
2023-05-13T17:20:11.486Z,4.80
2023-05-13T17:22:38.885Z,4.30
2023-05-13T17:25:08.815Z,3.92
2023-05-13T17:27:38.636Z,3.95
2023-05-13T17:30:06.772Z,3.78
2023-05-13T17:32:35.052Z,4.75
2023-05-13T17:35:05.297Z,4.82
2023-05-13T17:37:32.785Z,4.72
2023-05-13T17:40:02.552Z,4.35
2023-05-13T17:42:31.325Z,5.20
2023-05-13T17:44:59.086Z,5.70
2023-05-13T17:47:29.940Z,5.22
2023-05-13T17:49:57.708Z,4.53
2023-05-13T17:52:25.347Z,4.20
2023-05-13T17:54:52.883Z,4.28
2023-05-13T17:57:21.245Z,4.20
2023-05-13T17:59:48.675Z,4.43
2023-05-13T18:02:16.242Z,4.47
2023-05-13T18:04:43.938Z,4.95
2023-05-13T18:07:13.690Z,4.35
2023-05-13T18:09:41.095Z,4.53
2023-05-13T18:12:08.832Z,4.57
2023-05-13T18:14:36.249Z,4.68
2023-05-13T18:17:04.331Z,4.53
2023-05-13T18:19:32.064Z,4.55
2023-05-13T18:21:59.778Z,3.92
2023-05-13T18:24:27.225Z,4.62
2023-05-13T18:26:54.866Z,4.05
2023-05-13T18:29:22.390Z,4.50
2023-05-13T18:31:52.300Z,4.95
2023-05-13T18:34:20.065Z,4.40
2023-05-13T18:36:47.542Z,4.62
2023-05-13T18:39:15.564Z,4.90
2023-05-13T18:41:43.306Z,4.57
2023-05-13T18:44:10.931Z,5.00
2023-05-13T18:46:38.452Z,5.07
2023-05-13T18:49:06.351Z,4.90
2023-05-13T18:51:34.207Z,4.62
2023-05-13T18:54:01.707Z,4.82
2023-05-13T18:56:29.530Z,4.90
2023-05-13T18:58:57.057Z,4.75
2023-05-13T19:01:27.675Z,5.03
2023-05-13T19:03:58.165Z,4.80
2023-05-13T19:06:25.722Z,5.30
2023-05-13T19:08:53.130Z,5.50
2023-05-13T19:11:23.152Z,5.37
2023-05-13T19:13:50.645Z,5.20
2023-05-13T19:16:18.892Z,5.20
2023-05-13T19:18:46.588Z,5.30
2023-05-13T19:21:13.987Z,5.32
2023-05-13T19:23:41.429Z,6.03
2023-05-13T19:26:09.205Z,5.75
2023-05-13T19:28:37.952Z,5.50
2023-05-13T19:31:06.028Z,5.55
2023-05-13T19:33:33.792Z,5.25
2023-05-13T19:36:05.322Z,6.03
2023-05-13T19:38:33.912Z,5.95
2023-05-13T19:41:01.732Z,5.53
2023-05-13T19:43:29.150Z,5.85
2023-05-13T19:45:57.561Z,5.30
2023-05-13T19:48:29.828Z,5.15
2023-05-13T19:50:58.347Z,5.50
2023-05-13T19:53:26.567Z,5.60
2023-05-13T19:55:55.394Z,5.10
2023-05-13T19:58:22.833Z,5.12
2023-05-13T20:00:50.530Z,5.10
2023-05-13T20:03:18.336Z,5.72
2023-05-13T20:05:48.122Z,5.55
2023-05-13T20:08:15.520Z,5.60
2023-05-13T20:10:43.217Z,5.32
2023-05-13T20:13:13.496Z,5.65
2023-05-13T20:15:42.172Z,5.32
2023-05-13T20:18:09.923Z,5.28
2023-05-13T20:20:37.422Z,5.80
2023-05-13T20:23:04.872Z,5.45
2023-05-13T20:25:32.606Z,5.62
2023-05-13T20:27:59.983Z,4.95
2023-05-13T20:30:27.383Z,5.80
2023-05-13T20:32:55.115Z,5.70
2023-05-13T20:35:22.592Z,5.90
2023-05-13T20:37:49.989Z,5.62
2023-05-13T20:40:17.697Z,5.45
2023-05-13T20:42:45.294Z,5.43
2023-05-13T20:45:12.736Z,5.55
2023-05-13T20:47:40.512Z,5.50
2023-05-13T20:50:08.319Z,5.12
2023-05-13T20:52:35.966Z,5.28
2023-05-13T20:55:04.242Z,5.47
2023-05-13T20:57:31.651Z,5.85
2023-05-13T20:59:59.021Z,5.03
2023-05-13T21:02:26.699Z,5.62
2023-05-13T21:04:54.152Z,5.68
2023-05-13T21:07:21.520Z,5.55
2023-05-13T21:09:49.262Z,5.60
2023-05-13T21:12:19.666Z,5.60
2023-05-13T21:14:47.029Z,4.75
2023-05-13T21:17:14.722Z,5.25
2023-05-13T21:19:42.093Z,4.95
2023-05-13T21:22:09.452Z,5.00
2023-05-13T21:24:37.079Z,4.80
2023-05-13T21:27:04.701Z,5.00
2023-05-13T21:29:32.159Z,4.95
2023-05-13T21:31:59.809Z,6.00
2023-05-13T21:34:27.212Z,5.75
2023-05-13T21:36:54.594Z,5.30
2023-05-13T21:39:22.255Z,5.05
2023-05-13T21:41:49.673Z,4.87
2023-05-13T21:44:17.080Z,5.30
2023-05-13T21:46:44.766Z,5.25
2023-05-13T21:49:12.239Z,5.18
2023-05-13T21:51:39.974Z,5.43
2023-05-13T21:54:07.683Z,5.22
2023-05-13T21:56:35.094Z,5.97
2023-05-13T21:59:02.561Z,4.72
2023-05-13T22:01:30.402Z,4.95
2023-05-13T22:03:58.113Z,5.10
2023-05-13T22:06:25.553Z,5.00
2023-05-13T22:08:52.957Z,4.60
2023-05-13T22:11:21.016Z,4.90
2023-05-13T22:13:48.577Z,4.95
2023-05-13T22:16:16.119Z,4.85
2023-05-13T22:18:44.057Z,4.70
2023-05-13T22:21:11.608Z,5.30
2023-05-13T22:23:39.022Z,4.68
2023-05-13T22:26:06.703Z,4.40
2023-05-13T22:28:34.129Z,5.10
2023-05-13T22:31:01.586Z,4.95
2023-05-13T22:33:29.348Z,4.97
2023-05-13T22:35:56.792Z,4.90
2023-05-13T22:38:24.435Z,4.90
2023-05-13T22:40:52.088Z,4.85
2023-05-13T22:43:19.523Z,4.37
2023-05-13T22:45:46.952Z,4.80
2023-05-13T22:48:15.088Z,4.70
2023-05-13T22:50:42.497Z,5.00
2023-05-13T22:53:10.294Z,5.32
2023-05-13T22:55:38.269Z,5.20
2023-05-13T22:58:05.781Z,4.65
2023-05-13T23:00:33.191Z,4.78
2023-05-13T23:03:01.023Z,5.18
2023-05-13T23:05:28.765Z,5.37
2023-05-13T23:07:56.173Z,4.95
2023-05-13T23:10:23.970Z,4.80
2023-05-13T23:12:51.494Z,5.03
2023-05-13T23:15:19.115Z,5.25
2023-05-13T23:17:46.996Z,4.85
2023-05-13T23:20:14.450Z,4.93
2023-05-13T23:22:41.904Z,4.87
2023-05-13T23:25:09.951Z,4.70
2023-05-13T23:27:37.353Z,4.75
2023-05-13T23:30:05.526Z,4.75
2023-05-13T23:32:33.202Z,4.93
2023-05-13T23:35:00.585Z,4.68
2023-05-13T23:37:28.025Z,4.93
2023-05-13T23:39:55.907Z,4.95
2023-05-13T23:42:23.322Z,4.75
2023-05-13T23:44:50.718Z,4.50
2023-05-13T23:47:18.469Z,4.60
2023-05-13T23:49:45.882Z,4.60
2023-05-13T23:52:13.313Z,4.45
2023-05-13T23:54:41.014Z,5.30
2023-05-13T23:57:08.497Z,5.05
2023-05-13T23:59:36.094Z,5.57
